Time;durP1;ratioP1;P1;durP2;ratioP2;P2;SDS_P1;SDS_P2;PMS_P1;PMS_P2;Temp;Humidity;BMP_temperature;BMP_pressure;BME280_temperature;BME280_humidity;BME280_pressure;Samples;Min_cycle;Max_cycle;Signal;HPM_P1;HPM_P2
2022/01/09 00:01:09;;;;;;;1.45;1.08;;;;;;;;;;4978711;28;20062;-83
2022/01/09 00:03:48;;;;;;;0.90;0.90;;;;;;;;;;4982551;28;20023;-84
2022/01/09 00:06:14;;;;;;;2.40;1.00;;;;;;;;;;4981880;28;20472;-83
2022/01/09 00:08:41;;;;;;;1.13;1.02;;;;;;;;;;4979415;28;20039;-84
2022/01/09 00:11:25;;;;;;;0.85;0.85;;;;;;;;;;4977773;28;20031;-84
2022/01/09 00:13:53;;;;;;;1.00;0.80;;;;;;;;;;4977652;28;20085;-84
2022/01/09 00:16:23;;;;;;;2.13;1.00;;;;;;;;;;4978509;28;20027;-84
2022/01/09 00:18:51;;;;;;;2.15;0.98;;;;;;;;;;4976653;28;20031;-84
2022/01/09 00:21:20;;;;;;;1.13;0.82;;;;;;;;;;4980224;28;20120;-84
2022/01/09 00:23:46;;;;;;;1.20;0.80;;;;;;;;;;4968604;28;20110;-83
2022/01/09 00:26:12;;;;;;;1.10;0.77;;;;;;;;;;4965877;28;20360;-84
2022/01/09 00:28:38;;;;;;;0.60;0.60;;;;;;;;;;4980626;28;20129;-84
2022/01/09 00:31:04;;;;;;;1.50;0.70;;;;;;;;;;4981168;28;20027;-84
2022/01/09 00:33:30;;;;;;;0.70;0.70;;;;;;;;;;4979265;28;20050;-86
2022/01/09 00:35:56;;;;;;;0.60;0.60;;;;;;;;;;4980249;28;20023;-84
2022/01/09 00:38:24;;;;;;;0.70;0.70;;;;;;;;;;4978624;28;20094;-83
2022/01/09 00:40:50;;;;;;;0.80;0.63;;;;;;;;;;4981434;28;20090;-84
2022/01/09 00:43:16;;;;;;;0.73;0.70;;;;;;;;;;4980492;28;20019;-84
2022/01/09 00:45:42;;;;;;;1.48;0.63;;;;;;;;;;4982899;28;20070;-83
2022/01/09 00:48:09;;;;;;;0.60;0.60;;;;;;;;;;4981969;28;20037;-84
2022/01/09 00:50:36;;;;;;;1.30;0.75;;;;;;;;;;4982661;28;20037;-85
2022/01/09 00:53:05;;;;;;;0.77;0.70;;;;;;;;;;4982944;28;20026;-84
2022/01/09 00:55:32;;;;;;;1.00;0.90;;;;;;;;;;4983680;28;20031;-83
2022/01/09 00:57:58;;;;;;;1.55;0.60;;;;;;;;;;4988216;28;20288;-83
2022/01/09 01:00:24;;;;;;;0.60;0.60;;;;;;;;;;4983949;28;20034;-84
2022/01/09 01:03:00;;;;;;;0.82;0.70;;;;;;;;;;4981440;28;20019;-81
2022/01/09 01:05:26;;;;;;;1.58;0.70;;;;;;;;;;4982380;28;20030;-82
2022/01/09 01:07:54;;;;;;;0.80;0.77;;;;;;;;;;4981218;28;20071;-82
2022/01/09 01:10:20;;;;;;;0.77;0.73;;;;;;;;;;4973065;28;20023;-83
2022/01/09 01:12:48;;;;;;;0.60;0.60;;;;;;;;;;4980898;28;20082;-83
2022/01/09 01:15:14;;;;;;;0.70;0.70;;;;;;;;;;4975884;28;20019;-82
2022/01/09 01:17:41;;;;;;;1.80;0.60;;;;;;;;;;4972145;28;20481;-82
2022/01/09 01:20:07;;;;;;;0.57;0.57;;;;;;;;;;4981058;28;20023;-82
2022/01/09 01:22:35;;;;;;;0.65;0.65;;;;;;;;;;4981355;28;20019;-82
2022/01/09 01:25:01;;;;;;;1.58;0.65;;;;;;;;;;4981339;28;20022;-81
2022/01/09 01:27:28;;;;;;;1.70;0.80;;;;;;;;;;4978660;28;20026;-82
2022/01/09 01:29:54;;;;;;;0.73;0.70;;;;;;;;;;4977787;28;20027;-82
2022/01/09 01:32:22;;;;;;;0.77;0.60;;;;;;;;;;4978685;28;20384;-82
2022/01/09 01:34:48;;;;;;;1.73;0.80;;;;;;;;;;4979733;28;20034;-82
2022/01/09 01:37:15;;;;;;;0.82;0.82;;;;;;;;;;4977540;28;20054;-81
2022/01/09 01:39:41;;;;;;;0.88;0.88;;;;;;;;;;4979522;28;20029;-81
2022/01/09 01:42:07;;;;;;;1.20;0.88;;;;;;;;;;4978316;28;20023;-82
2022/01/09 01:44:40;;;;;;;1.02;0.70;;;;;;;;;;4978796;28;20197;-82
2022/01/09 01:47:06;;;;;;;2.45;0.95;;;;;;;;;;4978228;28;20057;-83
2022/01/09 01:49:32;;;;;;;1.02;0.90;;;;;;;;;;4976164;28;20061;-82
2022/01/09 01:51:58;;;;;;;1.90;0.80;;;;;;;;;;4978208;28;20027;-82
2022/01/09 01:54:26;;;;;;;2.40;1.08;;;;;;;;;;4979154;28;20022;-82
2022/01/09 01:56:52;;;;;;;2.15;0.95;;;;;;;;;;4977739;28;20023;-82
2022/01/09 01:59:18;;;;;;;1.10;1.00;;;;;;;;;;4978331;28;20107;-82
2022/01/09 02:01:44;;;;;;;1.65;1.00;;;;;;;;;;4978433;28;20456;-82
2022/01/09 02:04:10;;;;;;;1.73;1.08;;;;;;;;;;4979233;28;20146;-82
2022/01/09 02:06:36;;;;;;;2.38;1.27;;;;;;;;;;4977643;28;20026;-82
2022/01/09 02:09:05;;;;;;;1.90;1.20;;;;;;;;;;4978908;28;20101;-82
2022/01/09 02:11:33;;;;;;;1.77;0.93;;;;;;;;;;4970506;28;20023;-82
2022/01/09 02:13:59;;;;;;;1.58;1.00;;;;;;;;;;4978604;28;20034;-84
2022/01/09 02:16:26;;;;;;;1.00;1.00;;;;;;;;;;4975840;28;20170;-82
2022/01/09 02:18:52;;;;;;;0.93;0.90;;;;;;;;;;4976132;28;20037;-81
2022/01/09 02:21:18;;;;;;;1.27;1.17;;;;;;;;;;4977535;28;20496;-82
2022/01/09 02:23:46;;;;;;;1.55;1.00;;;;;;;;;;4977909;28;20034;-82
2022/01/09 02:26:16;;;;;;;1.33;1.08;;;;;;;;;;4976353;28;20065;-82
2022/01/09 02:28:42;;;;;;;1.80;1.10;;;;;;;;;;4976718;28;20031;-82
2022/01/09 02:31:09;;;;;;;2.97;1.30;;;;;;;;;;4977354;28;20126;-81
2022/01/09 02:33:35;;;;;;;1.20;1.10;;;;;;;;;;4976725;28;20031;-82
2022/01/09 02:36:01;;;;;;;0.63;0.63;;;;;;;;;;4977152;28;20030;-81
2022/01/09 02:38:27;;;;;;;1.42;1.33;;;;;;;;;;4977933;28;20062;-82
2022/01/09 02:40:54;;;;;;;0.90;0.90;;;;;;;;;;4977088;28;20053;-82
2022/01/09 02:43:21;;;;;;;2.05;1.02;;;;;;;;;;4977153;28;20042;-82
2022/01/09 02:45:53;;;;;;;1.17;1.05;;;;;;;;;;4976717;28;20022;-82
2022/01/09 02:48:19;;;;;;;1.90;1.08;;;;;;;;;;4975772;28;20037;-81
2022/01/09 02:51:00;;;;;;;4.40;1.30;;;;;;;;;;4977495;28;20022;-82
2022/01/09 02:53:29;;;;;;;2.80;0.90;;;;;;;;;;4976148;28;20027;-82
2022/01/09 02:55:55;;;;;;;0.73;0.60;;;;;;;;;;4976950;28;20134;-82
2022/01/09 02:58:22;;;;;;;3.00;1.25;;;;;;;;;;4985767;28;20265;-82
2022/01/09 03:00:48;;;;;;;0.82;0.77;;;;;;;;;;4997502;28;20027;-82
2022/01/09 03:03:14;;;;;;;2.08;0.68;;;;;;;;;;4982102;28;20057;-82
2022/01/09 03:05:40;;;;;;;1.83;0.70;;;;;;;;;;4977350;28;20061;-82
2022/01/09 03:08:08;;;;;;;0.60;0.60;;;;;;;;;;4977183;28;20019;-82
2022/01/09 03:10:34;;;;;;;0.93;0.68;;;;;;;;;;4969892;28;20034;-82
2022/01/09 03:13:00;;;;;;;0.60;0.60;;;;;;;;;;4973561;28;20034;-82
2022/01/09 03:15:27;;;;;;;0.52;0.47;;;;;;;;;;4978179;28;20038;-82
2022/01/09 03:17:53;;;;;;;0.85;0.50;;;;;;;;;;4983174;28;20027;-81
2022/01/09 03:20:20;;;;;;;2.92;0.50;;;;;;;;;;4989366;28;20027;-82
2022/01/09 03:22:46;;;;;;;2.03;0.60;;;;;;;;;;4985994;28;20034;-82
2022/01/09 03:25:13;;;;;;;0.60;0.60;;;;;;;;;;4979349;28;20031;-82
2022/01/09 03:27:39;;;;;;;0.50;0.50;;;;;;;;;;4976920;28;20030;-83
2022/01/09 03:30:07;;;;;;;2.90;0.60;;;;;;;;;;4977740;28;20073;-82
2022/01/09 03:32:34;;;;;;;0.50;0.50;;;;;;;;;;4977224;28;20082;-82
2022/01/09 03:35:00;;;;;;;0.95;0.75;;;;;;;;;;4977768;28;20037;-82
2022/01/09 03:37:26;;;;;;;0.50;0.50;;;;;;;;;;4976229;28;20122;-83
2022/01/09 03:39:52;;;;;;;0.65;0.65;;;;;;;;;;4977913;28;20054;-83
2022/01/09 03:42:18;;;;;;;0.60;0.60;;;;;;;;;;4978233;28;20034;-82
2022/01/09 03:44:44;;;;;;;0.80;0.70;;;;;;;;;;4978417;28;20073;-82
2022/01/09 03:47:11;;;;;;;0.50;0.50;;;;;;;;;;4977938;28;20027;-81
2022/01/09 03:49:37;;;;;;;0.60;0.60;;;;;;;;;;4975172;28;20082;-84
2022/01/09 03:52:03;;;;;;;0.63;0.60;;;;;;;;;;4976679;28;20038;-81
2022/01/09 03:54:29;;;;;;;0.50;0.50;;;;;;;;;;4977310;28;20045;-82
2022/01/09 03:56:55;;;;;;;0.55;0.55;;;;;;;;;;4976053;28;20023;-81
2022/01/09 03:59:21;;;;;;;0.50;0.50;;;;;;;;;;4977580;28;20026;-81
2022/01/09 04:01:47;;;;;;;0.70;0.60;;;;;;;;;;4976098;28;20114;-81
2022/01/09 04:04:13;;;;;;;1.27;0.50;;;;;;;;;;4977102;28;20039;-81
2022/01/09 04:06:45;;;;;;;0.50;0.50;;;;;;;;;;4976711;28;20054;-81
2022/01/09 04:09:18;;;;;;;0.60;0.50;;;;;;;;;;4975439;28;20110;-81
2022/01/09 04:11:45;;;;;;;0.50;0.50;;;;;;;;;;4976978;28;20073;-81
2022/01/09 04:14:11;;;;;;;0.60;0.60;;;;;;;;;;4972865;28;20102;-82
2022/01/09 04:16:37;;;;;;;0.70;0.70;;;;;;;;;;4975983;28;20034;-82
2022/01/09 04:19:03;;;;;;;0.85;0.85;;;;;;;;;;4975177;28;20031;-82
2022/01/09 04:21:29;;;;;;;0.60;0.60;;;;;;;;;;4981056;28;20027;-83
2022/01/09 04:23:55;;;;;;;0.70;0.70;;;;;;;;;;4980527;28;20019;-82
2022/01/09 04:26:21;;;;;;;1.35;0.80;;;;;;;;;;4978195;28;20026;-82
2022/01/09 04:28:48;;;;;;;1.48;0.82;;;;;;;;;;4978953;28;20035;-83
2022/01/09 04:31:15;;;;;;;2.38;0.80;;;;;;;;;;4980590;28;20041;-82
2022/01/09 04:33:42;;;;;;;1.02;0.80;;;;;;;;;;4979638;28;20030;-83
2022/01/09 04:36:08;;;;;;;2.83;0.88;;;;;;;;;;4979687;28;20031;-82
2022/01/09 04:38:34;;;;;;;0.93;0.90;;;;;;;;;;4980402;28;20042;-82
2022/01/09 04:41:00;;;;;;;1.23;0.88;;;;;;;;;;4979796;28;20019;-83
2022/01/09 04:43:27;;;;;;;3.40;1.30;;;;;;;;;;4980080;28;20022;-82
2022/01/09 04:45:53;;;;;;;5.25;1.45;;;;;;;;;;4979771;28;20096;-82
2022/01/09 04:48:19;;;;;;;5.18;1.60;;;;;;;;;;4977057;28;20335;-82
2022/01/09 04:50:47;;;;;;;4.47;1.33;;;;;;;;;;4980266;28;20026;-83
2022/01/09 04:53:13;;;;;;;3.60;1.05;;;;;;;;;;4979786;28;20027;-82
2022/01/09 04:55:41;;;;;;;3.20;1.20;;;;;;;;;;4981104;28;20095;-81
2022/01/09 04:58:08;;;;;;;7.13;1.52;;;;;;;;;;4985202;28;20041;-82
2022/01/09 05:00:34;;;;;;;6.80;1.67;;;;;;;;;;4980194;28;20398;-82
2022/01/09 05:03:00;;;;;;;3.55;1.95;;;;;;;;;;4978293;28;20019;-82
2022/01/09 05:05:26;;;;;;;8.25;1.20;;;;;;;;;;4979182;28;20029;-82
2022/01/09 05:07:52;;;;;;;7.32;1.77;;;;;;;;;;4979037;28;20098;-82
2022/01/09 05:10:18;;;;;;;2.70;1.60;;;;;;;;;;4979593;28;20053;-81
2022/01/09 05:12:44;;;;;;;2.20;1.33;;;;;;;;;;4979275;28;20061;-81
2022/01/09 05:15:13;;;;;;;3.33;1.70;;;;;;;;;;4979475;28;20031;-82
2022/01/09 05:17:39;;;;;;;9.30;2.58;;;;;;;;;;4979135;28;20030;-82
2022/01/09 05:20:05;;;;;;;3.90;1.90;;;;;;;;;;4980183;28;20142;-83
2022/01/09 05:22:31;;;;;;;5.55;1.67;;;;;;;;;;4979199;28;20463;-82
2022/01/09 05:24:58;;;;;;;6.10;1.50;;;;;;;;;;4979713;28;20031;-83
2022/01/09 05:27:25;;;;;;;4.57;1.60;;;;;;;;;;4979073;28;20018;-82
2022/01/09 05:29:51;;;;;;;5.55;1.75;;;;;;;;;;4980550;28;20018;-83
2022/01/09 05:32:17;;;;;;;3.63;1.90;;;;;;;;;;4979919;28;20037;-82
2022/01/09 05:34:43;;;;;;;3.35;1.58;;;;;;;;;;4979438;28;20106;-82
2022/01/09 05:37:09;;;;;;;3.22;1.80;;;;;;;;;;4979177;28;20054;-82
2022/01/09 05:39:35;;;;;;;7.30;2.53;;;;;;;;;;4986607;28;20032;-83
2022/01/09 05:42:03;;;;;;;6.15;1.80;;;;;;;;;;4999450;28;20019;-82
2022/01/09 05:44:31;;;;;;;8.30;2.25;;;;;;;;;;4981468;28;20043;-83
2022/01/09 05:46:57;;;;;;;5.07;2.00;;;;;;;;;;4979536;28;20538;-83
2022/01/09 05:49:23;;;;;;;11.70;2.60;;;;;;;;;;4977412;28;20450;-82
2022/01/09 05:51:50;;;;;;;5.40;1.88;;;;;;;;;;4979342;28;20023;-83
2022/01/09 05:54:16;;;;;;;6.63;2.03;;;;;;;;;;4980092;28;20033;-83
2022/01/09 05:56:41;;;;;;;10.25;2.83;;;;;;;;;;4978718;28;20386;-83
2022/01/09 05:59:07;;;;;;;5.97;2.10;;;;;;;;;;4980123;28;20039;-82
2022/01/09 06:01:35;;;;;;;11.35;2.42;;;;;;;;;;4979304;28;20027;-82
2022/01/09 06:04:01;;;;;;;10.60;2.20;;;;;;;;;;4983334;28;20085;-82
2022/01/09 06:06:27;;;;;;;6.60;2.33;;;;;;;;;;4982167;28;20027;-82
2022/01/09 06:08:53;;;;;;;9.10;1.77;;;;;;;;;;4982987;28;20031;-82
2022/01/09 06:11:19;;;;;;;8.43;1.88;;;;;;;;;;4978017;28;20041;-83
2022/01/09 06:13:45;;;;;;;17.13;2.50;;;;;;;;;;4978415;28;20038;-83
2022/01/09 06:16:11;;;;;;;11.15;2.28;;;;;;;;;;4977712;28;20023;-82
2022/01/09 06:18:37;;;;;;;6.88;1.85;;;;;;;;;;4979502;28;20033;-83
2022/01/09 06:21:03;;;;;;;11.23;2.40;;;;;;;;;;4975936;28;20114;-83
2022/01/09 06:23:29;;;;;;;12.40;3.35;;;;;;;;;;4977237;28;20034;-83
2022/01/09 06:25:55;;;;;;;7.25;2.30;;;;;;;;;;4975917;28;20047;-83
2022/01/09 06:28:21;;;;;;;11.45;2.38;;;;;;;;;;4976732;28;20033;-83
2022/01/09 06:30:47;;;;;;;8.77;2.25;;;;;;;;;;4977647;28;20031;-83
2022/01/09 06:33:14;;;;;;;11.60;2.17;;;;;;;;;;4975268;28;20517;-83
2022/01/09 06:35:41;;;;;;;10.23;2.75;;;;;;;;;;4975793;28;20031;-83
2022/01/09 06:38:07;;;;;;;9.73;2.13;;;;;;;;;;4976442;28;20085;-82
2022/01/09 06:40:33;;;;;;;5.63;1.90;;;;;;;;;;4975669;28;20058;-83
2022/01/09 06:42:59;;;;;;;11.32;1.98;;;;;;;;;;4977056;28;20033;-83
2022/01/09 06:45:27;;;;;;;9.52;2.65;;;;;;;;;;4976445;28;20137;-83
2022/01/09 06:47:53;;;;;;;11.45;2.20;;;;;;;;;;4975067;28;20483;-83
2022/01/09 06:50:19;;;;;;;9.43;2.10;;;;;;;;;;4977711;28;20022;-83
2022/01/09 06:52:46;;;;;;;8.05;1.92;;;;;;;;;;4974791;28;20062;-83
2022/01/09 06:55:12;;;;;;;12.82;2.53;;;;;;;;;;4976357;28;20502;-83
2022/01/09 06:57:39;;;;;;;8.40;2.17;;;;;;;;;;4985867;28;20098;-82
2022/01/09 07:00:06;;;;;;;10.93;2.50;;;;;;;;;;4975462;28;20051;-80
2022/01/09 07:02:31;;;;;;;8.90;2.08;;;;;;;;;;4975739;28;20583;-83
2022/01/09 07:04:57;;;;;;;13.13;2.45;;;;;;;;;;4977069;28;20054;-83
2022/01/09 07:07:23;;;;;;;9.80;1.90;;;;;;;;;;4978382;28;20089;-83
2022/01/09 07:09:49;;;;;;;12.82;2.40;;;;;;;;;;4975440;28;20026;-83
2022/01/09 07:12:16;;;;;;;8.70;2.28;;;;;;;;;;4980436;28;20426;-83
2022/01/09 07:14:42;;;;;;;8.95;2.55;;;;;;;;;;4976759;28;20031;-83
2022/01/09 07:17:08;;;;;;;11.43;1.70;;;;;;;;;;4976796;28;20430;-83
2022/01/09 07:19:34;;;;;;;12.43;2.50;;;;;;;;;;4976250;28;20066;-83
2022/01/09 07:22:00;;;;;;;12.00;2.15;;;;;;;;;;4978130;28;20494;-83
2022/01/09 07:24:26;;;;;;;9.70;2.28;;;;;;;;;;4978269;28;20470;-83
2022/01/09 07:26:52;;;;;;;11.65;1.90;;;;;;;;;;4977744;28;20050;-83
2022/01/09 07:29:18;;;;;;;12.52;2.67;;;;;;;;;;4977480;28;20030;-83
2022/01/09 07:31:44;;;;;;;5.45;1.77;;;;;;;;;;4977349;28;20034;-83
2022/01/09 07:34:10;;;;;;;8.70;1.70;;;;;;;;;;4985775;28;20034;-84
2022/01/09 07:36:36;;;;;;;8.75;1.75;;;;;;;;;;4981576;28;20038;-87
2022/01/09 07:39:02;;;;;;;13.40;2.13;;;;;;;;;;4989977;28;20451;-86
2022/01/09 07:41:28;;;;;;;14.75;2.47;;;;;;;;;;4984434;28;20019;-85
2022/01/09 07:43:54;;;;;;;14.75;2.42;;;;;;;;;;4984406;28;20481;-85
2022/01/09 07:46:20;;;;;;;16.40;3.33;;;;;;;;;;4981722;28;20070;-86
2022/01/09 07:48:46;;;;;;;7.85;1.52;;;;;;;;;;4982600;28;20042;-86
2022/01/09 07:51:12;;;;;;;12.88;2.17;;;;;;;;;;4980622;28;20033;-85
2022/01/09 07:53:38;;;;;;;7.03;2.28;;;;;;;;;;4980318;28;20031;-82
2022/01/09 07:56:05;;;;;;;6.80;2.10;;;;;;;;;;4981605;28;20090;-83
2022/01/09 07:58:31;;;;;;;8.48;2.03;;;;;;;;;;4982425;28;20042;-83
2022/01/09 08:00:58;;;;;;;15.55;3.05;;;;;;;;;;4981653;28;20038;-82
2022/01/09 08:03:24;;;;;;;14.60;1.95;;;;;;;;;;4981737;28;20434;-83
2022/01/09 08:05:50;;;;;;;13.15;2.00;;;;;;;;;;4980657;28;20038;-84
2022/01/09 08:08:16;;;;;;;10.30;2.35;;;;;;;;;;4982689;28;20802;-83
2022/01/09 08:10:42;;;;;;;7.32;1.85;;;;;;;;;;4982859;28;20034;-83
2022/01/09 08:13:08;;;;;;;17.13;2.63;;;;;;;;;;4982927;28;20037;-82
2022/01/09 08:15:34;;;;;;;8.15;1.98;;;;;;;;;;4978677;28;20062;-84
2022/01/09 08:18:00;;;;;;;11.52;2.10;;;;;;;;;;4975533;28;20019;-84
2022/01/09 08:20:26;;;;;;;14.73;2.15;;;;;;;;;;4998168;28;20023;-83
2022/01/09 08:22:52;;;;;;;9.95;2.53;;;;;;;;;;4990824;28;20139;-84
2022/01/09 08:25:19;;;;;;;13.77;2.95;;;;;;;;;;4981951;28;20047;-86
2022/01/09 08:27:45;;;;;;;17.27;2.72;;;;;;;;;;4980389;28;20027;-85
2022/01/09 08:30:12;;;;;;;20.30;2.03;;;;;;;;;;4978771;28;20482;-84
2022/01/09 08:32:38;;;;;;;11.77;2.95;;;;;;;;;;4977992;28;20030;-86
2022/01/09 08:35:05;;;;;;;12.55;1.73;;;;;;;;;;4979503;28;20062;-83
2022/01/09 08:37:31;;;;;;;14.20;2.13;;;;;;;;;;4981862;28;20103;-82
2022/01/09 08:39:57;;;;;;;14.55;2.53;;;;;;;;;;4978346;28;20038;-86
2022/01/09 08:42:23;;;;;;;15.63;2.38;;;;;;;;;;4978810;28;20019;-84
2022/01/09 08:44:49;;;;;;;10.93;2.55;;;;;;;;;;4980053;28;20034;-84
2022/01/09 08:47:15;;;;;;;12.10;2.53;;;;;;;;;;4981157;28;20122;-84
2022/01/09 08:49:42;;;;;;;10.80;2.10;;;;;;;;;;4980843;28;20031;-85
2022/01/09 08:52:08;;;;;;;10.90;2.42;;;;;;;;;;4977266;28;20023;-85
2022/01/09 08:54:34;;;;;;;11.23;1.88;;;;;;;;;;4979185;28;20125;-85
2022/01/09 08:57:01;;;;;;;10.43;3.15;;;;;;;;;;4989961;28;20026;-84
2022/01/09 08:59:27;;;;;;;6.32;2.42;;;;;;;;;;4978851;28;20054;-84
2022/01/09 09:01:53;;;;;;;11.18;2.20;;;;;;;;;;4977652;28;20015;-84
2022/01/09 09:04:19;;;;;;;12.25;2.97;;;;;;;;;;4978772;28;20102;-84
2022/01/09 09:06:45;;;;;;;10.70;2.75;;;;;;;;;;4975871;28;20149;-84
2022/01/09 09:09:12;;;;;;;9.27;1.73;;;;;;;;;;4978830;28;20085;-83
2022/01/09 09:11:38;;;;;;;17.40;2.58;;;;;;;;;;4974846;28;20109;-82
2022/01/09 09:14:04;;;;;;;17.00;2.55;;;;;;;;;;4977916;28;20035;-83
2022/01/09 09:16:31;;;;;;;10.50;2.50;;;;;;;;;;4976847;28;20023;-84
2022/01/09 09:18:57;;;;;;;16.52;2.25;;;;;;;;;;4978281;28;20408;-84
2022/01/09 09:21:23;;;;;;;14.82;2.08;;;;;;;;;;4977068;28;20070;-84
2022/01/09 09:23:49;;;;;;;11.98;2.20;;;;;;;;;;4978629;28;20055;-84
2022/01/09 09:26:16;;;;;;;14.65;2.38;;;;;;;;;;4976882;28;20023;-85
2022/01/09 09:28:43;;;;;;;13.40;1.98;;;;;;;;;;4977953;28;20410;-84
2022/01/09 09:31:09;;;;;;;16.85;2.42;;;;;;;;;;4978363;28;20117;-84
2022/01/09 09:33:35;;;;;;;11.02;2.45;;;;;;;;;;4977807;28;20065;-84
2022/01/09 09:36:02;;;;;;;12.32;2.63;;;;;;;;;;4975598;28;20042;-84
2022/01/09 09:38:29;;;;;;;8.55;2.13;;;;;;;;;;4978059;28;20023;-84
2022/01/09 09:40:55;;;;;;;10.00;2.35;;;;;;;;;;4996055;28;20027;-84
2022/01/09 09:43:21;;;;;;;12.90;2.67;;;;;;;;;;4979419;28;20043;-85
2022/01/09 09:45:47;;;;;;;13.02;3.13;;;;;;;;;;4978885;28;20034;-85
2022/01/09 09:48:14;;;;;;;12.25;2.38;;;;;;;;;;4978446;28;20119;-85
2022/01/09 09:50:40;;;;;;;13.50;2.63;;;;;;;;;;4979705;28;20073;-84
2022/01/09 09:53:06;;;;;;;12.93;2.35;;;;;;;;;;4980352;28;20049;-83
2022/01/09 09:55:34;;;;;;;7.65;2.00;;;;;;;;;;4979857;28;20022;-84
2022/01/09 09:58:01;;;;;;;6.20;1.92;;;;;;;;;;4965087;28;20106;-84
2022/01/09 10:00:27;;;;;;;2.90;1.45;;;;;;;;;;4958689;28;20028;-84
2022/01/09 10:02:59;;;;;;;7.88;2.22;;;;;;;;;;4973319;28;20065;-84
2022/01/09 10:05:26;;;;;;;8.75;1.98;;;;;;;;;;4976518;28;20038;-84
2022/01/09 10:07:54;;;;;;;6.95;1.58;;;;;;;;;;4977986;28;20549;-84
2022/01/09 10:10:20;;;;;;;4.68;1.25;;;;;;;;;;4976087;28;20031;-85
2022/01/09 10:12:47;;;;;;;6.13;1.45;;;;;;;;;;4983392;28;20030;-84
2022/01/09 10:15:17;;;;;;;5.82;1.50;;;;;;;;;;4980455;28;20121;-86
2022/01/09 10:17:45;;;;;;;6.67;1.47;;;;;;;;;;4979569;28;20049;-84
2022/01/09 10:20:11;;;;;;;4.85;1.55;;;;;;;;;;4977553;28;20578;-84
2022/01/09 10:22:46;;;;;;;2.95;1.60;;;;;;;;;;4980725;28;20062;-86
2022/01/09 10:25:24;;;;;;;6.35;1.88;;;;;;;;;;4977334;28;20511;-84
2022/01/09 10:28:27;;;;;;;;;;;;;;;;;;;;;
2022/01/09 10:30:57;;;;;;;5.10;1.63;;;;;;;;;;4979772;28;20670;-85
2022/01/09 10:33:26;;;;;;;11.23;2.08;;;;;;;;;;4981038;28;20058;-85
2022/01/09 10:35:59;;;;;;;8.38;1.80;;;;;;;;;;4978776;28;20094;-85
2022/01/09 10:38:30;;;;;;;4.60;1.80;;;;;;;;;;4979346;28;20027;-84
2022/01/09 10:40:58;;;;;;;;;;;;;;;;;;4978370;28;20051;-84
2022/01/09 10:43:26;;;;;;;7.72;1.83;;;;;;;;;;4977434;28;19917;-85
2022/01/09 10:45:59;;;;;;;9.60;2.13;;;;;;;;;;4974880;28;20023;-85
2022/01/09 10:48:27;;;;;;;19.23;1.90;;;;;;;;;;4976461;28;20022;-84
2022/01/09 10:50:54;;;;;;;7.50;1.75;;;;;;;;;;4977422;28;20562;-84
2022/01/09 10:53:29;;;;;;;3.78;1.88;;;;;;;;;;4979645;28;20110;-85
2022/01/09 10:56:13;;;;;;;8.43;2.17;;;;;;;;;;4983598;28;20034;-84
2022/01/09 10:58:43;;;;;;;9.93;2.17;;;;;;;;;;4976641;28;20458;-84
2022/01/09 11:01:12;;;;;;;10.23;2.30;;;;;;;;;;4974110;28;20027;-84
2022/01/09 11:03:39;;;;;;;9.77;2.40;;;;;;;;;;4975093;28;20121;-84
2022/01/09 11:06:05;;;;;;;6.78;1.98;;;;;;;;;;4975913;28;20026;-85
2022/01/09 11:08:31;;;;;;;7.53;2.08;;;;;;;;;;4975348;28;20034;-85
2022/01/09 11:10:59;;;;;;;8.00;1.63;;;;;;;;;;4975484;28;20634;-87
2022/01/09 11:13:26;;;;;;;4.40;1.77;;;;;;;;;;4972815;28;20038;-85
2022/01/09 11:18:40;;;;;;;7.15;1.67;;;;;;;;;;4961200;28;20045;-87
2022/01/09 11:21:06;;;;;;;5.22;1.40;;;;;;;;;;4975364;28;20054;-85
2022/01/09 11:23:53;;;;;;;5.18;1.50;;;;;;;;;;4977486;28;20034;-86
2022/01/09 11:26:19;;;;;;;10.45;2.03;;;;;;;;;;4976138;28;20027;-85
2022/01/09 11:28:46;;;;;;;9.68;1.60;;;;;;;;;;4973742;28;20493;-85
2022/01/09 11:31:12;;;;;;;10.63;1.65;;;;;;;;;;4971098;28;20093;-83
2022/01/09 11:33:44;;;;;;;11.88;2.28;;;;;;;;;;4977480;28;20471;-84
2022/01/09 11:36:13;;;;;;;8.10;1.80;;;;;;;;;;4976373;28;20034;-84
2022/01/09 11:38:58;;;;;;;13.73;2.05;;;;;;;;;;4976842;28;20031;-85
2022/01/09 11:41:28;;;;;;;9.90;2.08;;;;;;;;;;4976118;28;20027;-85
2022/01/09 11:44:05;;;;;;;9.98;1.50;;;;;;;;;;4975547;28;20455;-85
2022/01/09 11:46:51;;;;;;;9.25;1.95;;;;;;;;;;4980540;28;20070;-87
2022/01/09 11:52:59;;;;;;;7.53;1.90;;;;;;;;;;4959543;29;20063;-84
2022/01/09 11:55:55;;;;;;;;;;;;;;;;;;;;;
2022/01/09 11:58:52;;;;;;;12.75;2.40;;;;;;;;;;4976332;28;20113;-85
2022/01/09 12:03:55;;;;;;;10.10;2.15;;;;;;;;;;5043398;22;20073;-85
2022/01/09 12:06:39;;;;;;;8.68;1.63;;;;;;;;;;4980050;28;20364;-85
2022/01/09 12:09:07;;;;;;;8.43;1.40;;;;;;;;;;4978434;28;20027;-85
2022/01/09 12:12:11;;;;;;;;;;;;;;;;;;;;;
2022/01/09 12:18:03;;;;;;;7.03;1.50;;;;;;;;;;4937898;29;20043;-85
2022/01/09 12:20:32;;;;;;;6.88;2.35;;;;;;;;;;4947131;29;20384;-86
2022/01/09 12:23:04;;;;;;;8.30;2.00;;;;;;;;;;4936770;29;20132;-84
2022/01/09 12:25:39;;;;;;;10.25;1.90;;;;;;;;;;4958187;28;20110;-85
2022/01/09 12:28:24;;;;;;;8.00;1.65;;;;;;;;;;4970253;28;20038;-84
2022/01/09 12:31:01;;;;;;;12.48;2.03;;;;;;;;;;4977986;28;20019;-84
2022/01/09 12:33:28;;;;;;;7.85;1.33;;;;;;;;;;4978260;28;20027;-85
2022/01/09 12:36:02;;;;;;;4.60;1.42;;;;;;;;;;4977453;28;20023;-83
2022/01/09 12:38:29;;;;;;;2.80;1.20;;;;;;;;;;4975765;28;20038;-84
2022/01/09 12:40:56;;;;;;;10.82;2.10;;;;;;;;;;4975936;28;20118;-84
2022/01/09 12:43:23;;;;;;;9.13;1.77;;;;;;;;;;4980737;28;20059;-84
2022/01/09 12:45:50;;;;;;;5.00;1.60;;;;;;;;;;4983335;28;20082;-83
2022/01/09 12:48:27;;;;;;;5.45;1.50;;;;;;;;;;4961063;28;20051;-83
2022/01/09 12:50:53;;;;;;;5.30;1.42;;;;;;;;;;4985900;28;20034;-82
2022/01/09 12:53:19;;;;;;;2.00;1.20;;;;;;;;;;4989822;28;20081;-82
2022/01/09 12:55:54;;;;;;;5.10;1.20;;;;;;;;;;4978893;28;20062;-82
2022/01/09 12:58:24;;;;;;;5.00;1.20;;;;;;;;;;4977829;28;20042;-83
2022/01/09 13:00:50;;;;;;;1.48;1.23;;;;;;;;;;4988597;28;20118;-83
2022/01/09 13:03:20;;;;;;;7.50;1.48;;;;;;;;;;4982369;28;20035;-84
2022/01/09 13:05:56;;;;;;;4.20;1.23;;;;;;;;;;4983349;28;20057;-83
2022/01/09 13:08:23;;;;;;;5.10;1.63;;;;;;;;;;4979737;28;20026;-84
2022/01/09 13:11:03;;;;;;;6.95;1.70;;;;;;;;;;4982642;28;20065;-84
2022/01/09 13:13:30;;;;;;;5.23;1.43;;;;;;;;;;4985603;28;20057;-84
2022/01/09 13:15:56;;;;;;;6.85;0.90;;;;;;;;;;4981635;28;20275;-83
2022/01/09 13:18:38;;;;;;;5.38;1.95;;;;;;;;;;4980321;28;20035;-82
2022/01/09 13:21:08;;;;;;;11.52;1.42;;;;;;;;;;4979936;28;20030;-83
2022/01/09 13:23:34;;;;;;;3.90;1.50;;;;;;;;;;4980526;28;20414;-83
2022/01/09 13:26:00;;;;;;;5.95;1.58;;;;;;;;;;4979583;28;20094;-82
2022/01/09 13:28:27;;;;;;;6.90;2.20;;;;;;;;;;4977055;28;20027;-83
2022/01/09 13:30:58;;;;;;;10.40;1.90;;;;;;;;;;4980013;28;20054;-83
2022/01/09 13:33:24;;;;;;;6.63;1.58;;;;;;;;;;4985182;28;20038;-83
2022/01/09 13:35:51;;;;;;;6.95;1.95;;;;;;;;;;4982974;28;20031;-83
2022/01/09 13:38:18;;;;;;;4.13;1.67;;;;;;;;;;4980159;28;20037;-84
2022/01/09 13:40:45;;;;;;;7.72;1.92;;;;;;;;;;4983248;28;20060;-85
2022/01/09 13:43:11;;;;;;;5.35;1.73;;;;;;;;;;4981106;28;20062;-84
2022/01/09 13:45:39;;;;;;;6.68;2.20;;;;;;;;;;4980791;28;20027;-84
2022/01/09 13:48:06;;;;;;;9.13;2.10;;;;;;;;;;4979710;28;20027;-85
2022/01/09 13:50:33;;;;;;;7.93;2.00;;;;;;;;;;4981754;28;20504;-84
2022/01/09 13:53:13;;;;;;;9.13;1.90;;;;;;;;;;4979574;28;20031;-84
2022/01/09 13:55:39;;;;;;;12.73;2.00;;;;;;;;;;4980419;28;20513;-83
2022/01/09 13:58:07;;;;;;;19.83;2.20;;;;;;;;;;4981988;28;20109;-83
2022/01/09 14:00:34;;;;;;;9.25;2.17;;;;;;;;;;4982271;28;20022;-83
2022/01/09 14:03:02;;;;;;;4.38;1.70;;;;;;;;;;4981353;28;20051;-84
2022/01/09 14:05:29;;;;;;;8.15;2.08;;;;;;;;;;4979984;28;20529;-84
2022/01/09 14:07:57;;;;;;;6.63;1.85;;;;;;;;;;4972060;28;20023;-84
2022/01/09 14:10:42;;;;;;;15.63;2.60;;;;;;;;;;4981385;28;20031;-84
2022/01/09 14:13:12;;;;;;;11.98;2.33;;;;;;;;;;4968800;28;20027;-84
2022/01/09 14:15:38;;;;;;;8.60;2.33;;;;;;;;;;4980258;28;20109;-84
2022/01/09 14:18:05;;;;;;;11.13;2.15;;;;;;;;;;4980420;28;20049;-84
2022/01/09 14:20:36;;;;;;;23.02;4.50;;;;;;;;;;4981279;28;20147;-85
2022/01/09 14:23:02;;;;;;;;;;;;;;;;;;4983460;28;20019;-84
2022/01/09 14:25:29;;;;;;;8.25;2.00;;;;;;;;;;4981629;28;19913;-84
2022/01/09 14:27:56;;;;;;;6.13;2.03;;;;;;;;;;4980766;28;20034;-85
2022/01/09 14:30:22;;;;;;;8.73;1.63;;;;;;;;;;4979199;28;20086;-86
2022/01/09 14:32:51;;;;;;;11.15;3.53;;;;;;;;;;4979210;28;20023;-85
2022/01/09 14:35:27;;;;;;;7.85;2.28;;;;;;;;;;4976624;28;20030;-85
2022/01/09 14:37:58;;;;;;;11.15;2.10;;;;;;;;;;4976572;28;20034;-85
2022/01/09 14:40:23;;;;;;;12.45;2.10;;;;;;;;;;4978648;28;20023;-85
2022/01/09 14:42:49;;;;;;;9.55;2.13;;;;;;;;;;4976263;28;20482;-86
2022/01/09 14:45:15;;;;;;;17.08;2.63;;;;;;;;;;4976590;28;20026;-85
2022/01/09 14:47:41;;;;;;;8.02;1.83;;;;;;;;;;4977350;28;20035;-85
2022/01/09 14:50:08;;;;;;;11.52;3.40;;;;;;;;;;4972687;28;20027;-84
2022/01/09 14:52:34;;;;;;;10.70;1.73;;;;;;;;;;4983263;28;20062;-84
2022/01/09 14:55:01;;;;;;;19.17;2.97;;;;;;;;;;4965343;28;20026;-81
2022/01/09 14:57:27;;;;;;;11.48;2.38;;;;;;;;;;4967094;28;20037;-84
2022/01/09 14:59:53;;;;;;;8.75;2.05;;;;;;;;;;4978543;28;20094;-84